Time;durP1;ratioP1;P1;durP2;ratioP2;P2;SDS_P1;SDS_P2;PMS_P1;PMS_P2;Temp;Humidity;BMP_temperature;BMP_pressure;BME280_temperature;BME280_humidity;BME280_pressure;Samples;Min_cycle;Max_cycle;Signal;HPM_P1;HPM_P2
2021/07/27 00:01:54;;;;;;;17.67;5.78;;;24.00;74.40;;;;;;5006021;28;20368;-85
2021/07/27 00:04:20;;;;;;;24.70;5.78;;;24.00;74.20;;;;;;5005634;28;20029;-85
2021/07/27 00:06:45;;;;;;;11.73;4.47;;;24.00;74.30;;;;;;5005833;28;20030;-85
2021/07/27 00:09:11;;;;;;;22.67;5.45;;;24.00;74.80;;;;;;5005686;28;20132;-86
2021/07/27 00:11:37;;;;;;;27.15;5.03;;;23.90;75.50;;;;;;5005963;28;20022;-85
2021/07/27 00:14:03;;;;;;;15.60;5.03;;;23.90;76.00;;;;;;5005814;28;20037;-85
2021/07/27 00:16:29;;;;;;;19.25;5.30;;;23.90;76.00;;;;;;5005917;28;20027;-85
2021/07/27 00:18:55;;;;;;;18.88;4.75;;;23.80;76.10;;;;;;5006009;28;20563;-86
2021/07/27 00:21:21;;;;;;;19.98;5.97;;;23.80;76.40;;;;;;5005673;28;20120;-86
2021/07/27 00:23:46;;;;;;;21.10;4.28;;;23.80;76.10;;;;;;5005930;28;20030;-86
2021/07/27 00:26:13;;;;;;;22.95;6.13;;;23.80;75.70;;;;;;5006803;28;20552;-84
2021/07/27 00:28:40;;;;;;;16.40;5.18;;;23.80;76.10;;;;;;5006226;28;20041;-85
2021/07/27 00:31:07;;;;;;;26.52;5.85;;;23.80;76.20;;;;;;5005933;28;20026;-83
2021/07/27 00:33:33;;;;;;;15.75;5.35;;;23.70;75.80;;;;;;5005785;28;20041;-86
2021/07/27 00:36:01;;;;;;;22.77;5.53;;;23.70;75.70;;;;;;5005030;28;20038;-84
2021/07/27 00:38:27;;;;;;;29.85;6.05;;;23.70;75.70;;;;;;5006934;28;20018;-86
2021/07/27 00:40:52;;;;;;;18.50;4.95;;;23.70;75.60;;;;;;5005316;28;20395;-85
2021/07/27 00:43:21;;;;;;;21.00;6.35;;;23.70;75.60;;;;;;5005020;28;20032;-85
2021/07/27 00:45:47;;;;;;;18.15;4.90;;;23.70;75.80;;;;;;5006704;28;20034;-86
2021/07/27 00:48:13;;;;;;;16.75;5.13;;;23.70;75.80;;;;;;5005220;28;20030;-86
2021/07/27 00:50:39;;;;;;;17.30;5.35;;;23.70;76.80;;;;;;5005080;28;20030;-81
2021/07/27 00:53:06;;;;;;;12.95;4.88;;;23.50;77.20;;;;;;5005381;28;20022;-86
2021/07/27 00:55:33;;;;;;;14.77;4.78;;;23.50;77.60;;;;;;5005973;28;20026;-86
2021/07/27 00:57:59;;;;;;;15.88;5.05;;;23.40;77.80;;;;;;5005485;28;20026;-85
2021/07/27 01:00:26;;;;;;;24.88;4.95;;;23.40;77.80;;;;;;5005526;28;20505;-85
2021/07/27 01:02:52;;;;;;;14.80;4.05;;;23.40;77.70;;;;;;5005629;28;20034;-85
2021/07/27 01:05:17;;;;;;;23.27;5.45;;;23.40;77.80;;;;;;5006314;28;20026;-87
2021/07/27 01:07:44;;;;;;;21.20;5.22;;;23.30;78.00;;;;;;5008484;28;20066;-85
2021/07/27 01:10:16;;;;;;;15.75;5.15;;;23.30;78.40;;;;;;5009216;28;20038;-86
2021/07/27 01:12:44;;;;;;;21.27;5.22;;;23.30;78.20;;;;;;5009825;28;20030;-85
2021/07/27 01:15:10;;;;;;;19.27;5.20;;;23.30;78.30;;;;;;5008695;28;20125;-85
2021/07/27 01:17:35;;;;;;;18.65;5.07;;;23.20;78.60;;;;;;5008658;28;20044;-84
2021/07/27 01:44:33;;;;;;;14.70;4.90;;;22.80;81.50;;;;;;5009860;28;20088;-85
2021/07/27 01:46:59;;;;;;;16.10;5.25;;;22.80;82.10;;;;;;5008981;28;20036;-86
2021/07/27 01:49:25;;;;;;;14.00;5.18;;;22.70;82.20;;;;;;5007842;28;20528;-86
2021/07/27 01:51:53;;;;;;;13.23;4.72;;;22.70;82.40;;;;;;5009028;28;20080;-86
2021/07/27 01:54:28;;;;;;;18.40;6.10;;;22.70;82.80;;;;;;5009524;28;20032;-86
2021/07/27 01:56:54;;;;;;;16.90;5.70;;;22.70;82.90;;;;;;5007673;28;20195;-84
2021/07/27 01:59:20;;;;;;;17.63;5.20;;;22.60;83.10;;;;;;5008189;28;20758;-83
2021/07/27 02:01:46;;;;;;;19.05;6.00;;;22.60;83.60;;;;;;5007913;28;20030;-86
2021/07/27 02:04:12;;;;;;;16.25;6.00;;;22.60;83.90;;;;;;5008070;28;20045;-85
2021/07/27 02:06:40;;;;;;;15.60;6.00;;;22.60;83.80;;;;;;5007319;28;20049;-87
2021/07/27 02:09:06;;;;;;;19.88;5.43;;;22.50;84.00;;;;;;5008006;28;20038;-85
2021/07/27 02:11:42;;;;;;;21.77;6.07;;;22.50;84.20;;;;;;5007627;28;20033;-84
2021/07/27 02:14:11;;;;;;;10.15;4.75;;;22.60;84.40;;;;;;5008021;28;20030;-85
2021/07/27 02:16:36;;;;;;;20.77;5.93;;;22.50;84.80;;;;;;5007859;28;20046;-85
2021/07/27 02:19:03;;;;;;;17.98;6.65;;;22.50;85.10;;;;;;5007418;28;20034;-85
2021/07/27 02:21:29;;;;;;;22.55;5.80;;;22.50;85.20;;;;;;5008559;28;20121;-84
2021/07/27 02:23:56;;;;;;;24.00;6.63;;;22.40;85.70;;;;;;5007810;28;20120;-85
2021/07/27 02:26:22;;;;;;;25.70;6.00;;;22.40;86.20;;;;;;5007514;28;20121;-84
2021/07/27 02:28:48;;;;;;;13.90;5.80;;;22.30;86.50;;;;;;5008864;28;20105;-84
2021/07/27 02:31:19;;;;;;;16.95;5.72;;;22.30;87.00;;;;;;5007172;28;20053;-84
2021/07/27 02:33:44;;;;;;;10.65;5.03;;;22.30;87.20;;;;;;5007491;28;20030;-86
2021/07/27 02:36:10;;;;;;;17.88;5.75;;;22.20;87.30;;;;;;5007455;28;20073;-88
2021/07/27 02:38:36;;;;;;;18.60;5.85;;;22.20;87.40;;;;;;5009311;28;20314;-86
2021/07/27 02:41:01;;;;;;;16.25;5.95;;;22.20;87.70;;;;;;5007121;28;20022;-88
2021/07/27 02:43:29;;;;;;;14.40;5.75;;;22.20;87.70;;;;;;5007010;28;20457;-87
2021/07/27 02:45:54;;;;;;;19.55;5.97;;;22.20;88.00;;;;;;5007104;28;20022;-86
2021/07/27 02:48:20;;;;;;;14.05;6.05;;;22.10;88.40;;;;;;5008053;28;20046;-86
2021/07/27 02:50:47;;;;;;;17.13;7.18;;;22.20;89.20;;;;;;5006411;28;20034;-87
2021/07/27 02:53:14;;;;;;;19.45;7.35;;;22.10;89.50;;;;;;5006727;28;20026;-88
2021/07/27 02:55:41;;;;;;;22.90;7.20;;;22.10;90.00;;;;;;5006653;28;20041;-86
2021/07/27 02:58:10;;;;;;;22.15;7.72;;;22.10;90.20;;;;;;5006780;28;20407;-87
2021/07/27 03:00:35;;;;;;;22.60;6.65;;;22.10;90.50;;;;;;5006917;28;20124;-87
2021/07/27 03:03:01;;;;;;;15.68;7.13;;;22.10;90.50;;;;;;5005998;28;20117;-87
2021/07/27 03:05:26;;;;;;;19.10;7.68;;;22.10;90.40;;;;;;5007196;28;20528;-86
2021/07/27 03:07:52;;;;;;;17.35;6.50;;;22.10;90.50;;;;;;5007809;28;20084;-85
2021/07/27 03:10:19;;;;;;;23.50;6.43;;;22.10;90.50;;;;;;5006467;28;20021;-87
2021/07/27 03:12:45;;;;;;;21.00;6.82;;;22.10;90.40;;;;;;5008176;28;20022;-87
2021/07/27 03:15:11;;;;;;;17.48;6.35;;;22.00;90.20;;;;;;5007609;28;20479;-85
2021/07/27 03:17:37;;;;;;;18.15;6.30;;;22.00;90.30;;;;;;5006676;28;20029;-86
2021/07/27 03:20:11;;;;;;;19.23;7.47;;;21.90;90.50;;;;;;5006159;28;20248;-86
2021/07/27 03:22:40;;;;;;;18.65;8.18;;;21.90;90.80;;;;;;5006292;28;20572;-86
2021/07/27 03:25:13;;;;;;;24.08;6.88;;;21.90;90.90;;;;;;5005951;28;20096;-86
2021/07/27 03:27:39;;;;;;;17.88;6.82;;;21.80;91.10;;;;;;5006175;28;20092;-87
2021/07/27 03:30:06;;;;;;;21.48;7.82;;;21.80;91.30;;;;;;5006079;28;20079;-87
2021/07/27 03:32:36;;;;;;;23.38;7.30;;;21.90;91.40;;;;;;5005974;28;20022;-87
2021/07/27 03:35:02;;;;;;;17.60;7.25;;;21.80;91.20;;;;;;5015225;28;20054;-87
2021/07/27 03:37:28;;;;;;;16.90;7.30;;;21.80;91.40;;;;;;5009646;28;20029;-87
2021/07/27 03:39:54;;;;;;;20.90;6.97;;;21.80;91.40;;;;;;5026715;28;20078;-87
2021/07/27 03:42:23;;;;;;;23.05;7.55;;;21.80;91.40;;;;;;5008982;28;20037;-85
2021/07/27 03:44:56;;;;;;;14.57;8.25;;;21.80;91.50;;;;;;5009516;28;20030;-86
2021/07/27 03:47:22;;;;;;;20.77;7.03;;;21.80;91.50;;;;;;5009229;28;20034;-86
2021/07/27 03:49:47;;;;;;;20.25;7.25;;;21.90;91.50;;;;;;5009029;28;20029;-85
2021/07/27 03:52:13;;;;;;;11.43;6.55;;;21.90;91.50;;;;;;5009155;28;20037;-84
2021/07/27 03:54:39;;;;;;;17.70;7.88;;;21.90;91.50;;;;;;5008914;28;20398;-85
2021/07/27 03:57:05;;;;;;;15.40;6.57;;;22.00;91.50;;;;;;5026853;28;20118;-87
2021/07/27 03:59:31;;;;;;;20.08;6.85;;;22.00;91.60;;;;;;5026649;28;20029;-85
2021/07/27 04:01:58;;;;;;;17.83;7.32;;;22.00;91.70;;;;;;5009114;28;20051;-86
2021/07/27 04:04:23;;;;;;;21.33;7.57;;;22.10;91.70;;;;;;5008621;28;20022;-84
2021/07/27 04:06:49;;;;;;;15.63;7.65;;;22.10;91.90;;;;;;5026126;28;20025;-85
2021/07/27 04:09:15;;;;;;;28.05;8.77;;;22.20;91.60;;;;;;5009108;28;20041;-84
2021/07/27 04:11:41;;;;;;;19.48;7.75;;;22.40;91.60;;;;;;5026445;28;20504;-85
2021/07/27 04:14:10;;;;;;;16.08;8.35;;;22.50;91.40;;;;;;5008976;28;20042;-83
2021/07/27 04:16:40;;;;;;;18.38;7.20;;;22.60;91.10;;;;;;5008466;28;20034;-84
2021/07/27 04:19:06;;;;;;;15.32;6.45;;;22.80;90.90;;;;;;5008822;28;20695;-85
2021/07/27 04:21:32;;;;;;;14.75;7.47;;;22.90;90.60;;;;;;5026569;28;20501;-85
2021/07/27 04:23:59;;;;;;;19.33;8.25;;;23.00;90.70;;;;;;5024824;28;20045;-85
2021/07/27 04:26:25;;;;;;;15.68;7.10;;;23.10;90.80;;;;;;5008755;28;20025;-84
2021/07/27 04:28:51;;;;;;;17.48;7.30;;;23.20;90.60;;;;;;5008446;28;20128;-85
2021/07/27 04:31:17;;;;;;;20.70;8.25;;;23.40;90.20;;;;;;5025509;28;20112;-84
2021/07/27 04:33:43;;;;;;;22.65;8.23;;;23.60;90.10;;;;;;5024805;28;20034;-84
2021/07/27 04:36:09;;;;;;;18.80;7.70;;;23.60;90.00;;;;;;5006986;28;20057;-85
2021/07/27 04:38:36;;;;;;;17.67;7.55;;;23.70;89.90;;;;;;5007544;28;20024;-83
2021/07/27 04:41:04;;;;;;;11.60;6.97;;;23.80;89.80;;;;;;5008578;28;20116;-84
2021/07/27 04:43:30;;;;;;;25.30;7.07;;;23.90;89.30;;;;;;5012522;28;20025;-85
2021/07/27 04:45:57;;;;;;;18.65;7.78;;;24.10;88.70;;;;;;5012342;28;20029;-83
2021/07/27 04:48:23;;;;;;;16.45;8.10;;;24.30;88.10;;;;;;5029749;28;20053;-85
2021/07/27 04:50:49;;;;;;;22.42;7.00;;;24.40;88.10;;;;;;5012100;28;20021;-85
2021/07/27 04:53:21;;;;;;;31.88;8.20;;;24.50;87.60;;;;;;5012164;28;20560;-84
2021/07/27 04:55:46;;;;;;;20.20;7.88;;;24.60;87.60;;;;;;5012036;28;20089;-84
2021/07/27 04:58:12;;;;;;;20.63;8.60;;;24.70;87.10;;;;;;5011741;28;20041;-84
2021/07/27 05:00:38;;;;;;;15.88;6.50;;;24.80;87.00;;;;;;5012064;28;20029;-84
2021/07/27 05:03:03;;;;;;;14.40;6.57;;;25.00;86.90;;;;;;5011414;28;20398;-84
2021/07/27 05:05:29;;;;;;;15.32;6.47;;;25.10;86.40;;;;;;5013244;28;20495;-85
2021/07/27 05:07:55;;;;;;;17.40;6.65;;;25.20;85.60;;;;;;5012725;28;20426;-86
2021/07/27 05:10:21;;;;;;;17.10;7.50;;;25.40;85.30;;;;;;5013263;28;20390;-79
2021/07/27 05:12:46;;;;;;;18.83;7.45;;;25.50;85.00;;;;;;5028922;28;20037;-79
2021/07/27 05:15:12;;;;;;;15.80;6.95;;;25.60;84.20;;;;;;5011936;28;20041;-81
2021/07/27 05:17:38;;;;;;;14.90;7.18;;;25.80;83.90;;;;;;5011686;28;20033;-79
2021/07/27 05:20:06;;;;;;;15.05;7.72;;;25.90;83.10;;;;;;5011835;28;20385;-81
2021/07/27 05:22:34;;;;;;;24.05;7.75;;;26.10;82.60;;;;;;5011821;28;20295;-80
2021/07/27 05:25:00;;;;;;;16.70;7.53;;;26.30;83.00;;;;;;5011311;28;20026;-81
2021/07/27 05:27:27;;;;;;;24.52;7.82;;;26.40;83.10;;;;;;5011576;28;20048;-81
2021/07/27 05:29:56;;;;;;;21.67;7.63;;;26.50;82.00;;;;;;5011674;28;20021;-82
2021/07/27 05:32:23;;;;;;;19.13;7.35;;;26.60;80.70;;;;;;5011113;28;20124;-81
2021/07/27 05:34:48;;;;;;;21.70;6.15;;;26.90;79.00;;;;;;5028188;28;20136;-82
2021/07/27 05:37:15;;;;;;;18.15;6.85;;;27.10;77.90;;;;;;5011485;28;20502;-82
2021/07/27 05:39:40;;;;;;;19.02;7.15;;;27.30;76.70;;;;;;5011672;28;20159;-82
2021/07/27 05:42:06;;;;;;;19.60;6.50;;;27.40;75.30;;;;;;5011183;28;20049;-82
2021/07/27 05:44:32;;;;;;;27.30;7.88;;;27.60;74.00;;;;;;5011169;28;20049;-81
2021/07/27 05:47:00;;;;;;;16.27;6.70;;;27.70;72.50;;;;;;5010338;28;20402;-82
2021/07/27 05:49:26;;;;;;;16.02;6.80;;;27.80;71.70;;;;;;5010670;28;20128;-80
2021/07/27 05:51:52;;;;;;;19.25;7.22;;;28.10;70.30;;;;;;5010176;28;20401;-81
2021/07/27 05:54:19;;;;;;;22.23;7.32;;;28.30;69.50;;;;;;5028525;28;20026;-79
2021/07/27 05:56:47;;;;;;;23.58;6.90;;;28.70;69.10;;;;;;5010613;28;20112;-80
2021/07/27 05:59:14;;;;;;;13.35;6.30;;;29.20;67.30;;;;;;5010187;28;20026;-79
2021/07/27 06:01:39;;;;;;;18.95;7.03;;;29.70;64.80;;;;;;5010283;28;20449;-80
2021/07/27 06:04:05;;;;;;;17.17;6.40;;;30.20;62.90;;;;;;5009864;28;20498;-80
2021/07/27 06:06:34;;;;;;;19.70;6.00;;;30.70;59.80;;;;;;5010357;28;20498;-80
2021/07/27 06:09:03;;;;;;;18.08;6.72;;;31.20;58.40;;;;;;5027817;28;20028;-79
2021/07/27 06:11:33;;;;;;;19.27;6.88;;;31.60;56.70;;;;;;5028091;28;20441;-81
2021/07/27 06:14:03;;;;;;;12.60;5.50;;;32.00;54.50;;;;;;5028123;28;20048;-81
2021/07/27 06:16:30;;;;;;;22.83;7.10;;;32.70;52.90;;;;;;5009534;28;20033;-80
2021/07/27 06:18:56;;;;;;;20.52;5.72;;;33.30;50.90;;;;;;5010106;28;20033;-81
2021/07/27 06:21:22;;;;;;;15.40;5.60;;;34.00;49.40;;;;;;5010169;28;20032;-81
2021/07/27 06:23:48;;;;;;;18.85;5.10;;;34.50;47.40;;;;;;5027916;28;20478;-81
2021/07/27 06:26:14;;;;;;;20.05;5.47;;;35.30;45.80;;;;;;5027621;28;20075;-81
2021/07/27 06:28:39;;;;;;;16.35;6.50;;;35.90;45.00;;;;;;5027980;28;20116;-81
2021/07/27 06:31:11;;;;;;;28.42;6.97;;;36.30;44.00;;;;;;5009447;28;20578;-82
2021/07/27 06:33:38;;;;;;;16.10;5.93;;;36.70;43.00;;;;;;5009323;28;20116;-82
2021/07/27 06:36:04;;;;;;;15.73;6.50;;;37.30;41.40;;;;;;5027443;28;20049;-80
2021/07/27 06:38:29;;;;;;;15.05;5.13;;;37.60;40.90;;;;;;5009914;28;20033;-80
2021/07/27 06:40:55;;;;;;;12.70;4.22;;;37.10;40.30;;;;;;5010006;28;20030;-79
2021/07/27 06:43:21;;;;;;;14.38;4.80;;;36.20;40.90;;;;;;5009458;28;20041;-80
2021/07/27 06:45:56;;;;;;;15.63;4.93;;;35.20;42.40;;;;;;5027258;28;20808;-81
2021/07/27 06:48:23;;;;;;;14.20;4.72;;;35.00;43.20;;;;;;5008797;28;20087;-81
2021/07/27 06:50:50;;;;;;;19.17;4.55;;;35.50;42.60;;;;;;5009288;28;20029;-81
2021/07/27 06:53:16;;;;;;;14.25;4.10;;;36.00;41.80;;;;;;5009622;28;20235;-82
2021/07/27 06:55:42;;;;;;;9.88;4.13;;;36.50;40.60;;;;;;5009338;28;20029;-81
2021/07/27 06:58:07;;;;;;;11.63;4.28;;;37.10;39.20;;;;;;5009189;28;20087;-80
2021/07/27 07:00:33;;;;;;;13.68;3.80;;;37.30;38.20;;;;;;5026632;28;20700;-83
2021/07/27 07:02:58;;;;;;;18.60;4.63;;;37.80;38.10;;;;;;5026895;28;20030;-81
2021/07/27 07:05:24;;;;;;;12.23;4.22;;;38.00;37.50;;;;;;5026383;28;20025;-81
2021/07/27 07:07:50;;;;;;;11.52;4.32;;;38.00;37.80;;;;;;5009375;28;20041;-80
2021/07/27 07:10:15;;;;;;;6.63;3.55;;;38.30;37.50;;;;;;5026853;28;20028;-81
2021/07/27 07:12:41;;;;;;;12.35;4.18;;;38.40;37.40;;;;;;5026494;28;20526;-80
2021/07/27 07:15:07;;;;;;;11.13;4.30;;;38.60;36.90;;;;;;5026532;28;20017;-81
2021/07/27 07:17:33;;;;;;;10.95;4.22;;;38.50;36.50;;;;;;5009069;28;20477;-80
2021/07/27 07:19:58;;;;;;;12.98;3.88;;;38.50;36.60;;;;;;5026249;28;20045;-80
2021/07/27 07:22:24;;;;;;;11.35;5.30;;;38.50;37.70;;;;;;5009134;28;20103;-80
2021/07/27 07:24:51;;;;;;;11.40;4.45;;;38.70;36.90;;;;;;5026605;28;20108;-79
2021/07/27 07:27:17;;;;;;;11.38;4.43;;;38.90;36.50;;;;;;5008611;28;20030;-80
2021/07/27 07:29:43;;;;;;;10.55;4.13;;;38.80;36.70;;;;;;5026540;28;20490;-81
2021/07/27 07:32:09;;;;;;;9.10;4.50;;;38.90;36.60;;;;;;5026438;28;20049;-81
2021/07/27 07:34:36;;;;;;;7.95;4.25;;;39.10;36.50;;;;;;5008697;28;20046;-81
2021/07/27 07:37:03;;;;;;;9.82;4.70;;;39.00;36.60;;;;;;5008463;28;20025;-80
2021/07/27 07:39:30;;;;;;;8.90;4.32;;;39.00;36.60;;;;;;5026442;28;20028;-80
2021/07/27 07:41:58;;;;;;;16.00;5.03;;;39.10;36.30;;;;;;5008353;28;20513;-81
2021/07/27 07:44:24;;;;;;;12.75;5.35;;;39.10;36.70;;;;;;5008002;28;20053;-80
2021/07/27 07:46:50;;;;;;;9.57;4.60;;;39.20;36.30;;;;;;5007899;28;20133;-81
2021/07/27 07:49:16;;;;;;;8.70;4.55;;;39.20;36.10;;;;;;5008591;28;20124;-79
2021/07/27 07:51:46;;;;;;;6.93;3.50;;;38.90;36.10;;;;;;5008320;28;20033;-80
2021/07/27 07:54:12;;;;;;;15.20;5.50;;;38.90;35.80;;;;;;5026468;28;20041;-81
2021/07/27 07:56:43;;;;;;;14.05;4.47;;;39.00;36.10;;;;;;5026258;28;20429;-81
2021/07/27 07:59:09;;;;;;;12.68;4.47;;;39.10;36.20;;;;;;5026046;28;20104;-80
2021/07/27 08:01:35;;;;;;;10.25;4.47;;;39.20;36.50;;;;;;5025675;28;20033;-80
2021/07/27 08:04:01;;;;;;;9.40;4.15;;;38.60;36.40;;;;;;5026628;28;20036;-81
2021/07/27 08:06:29;;;;;;;10.48;4.10;;;38.30;36.80;;;;;;5008479;28;20486;-80
2021/07/27 08:08:54;;;;;;;8.15;4.10;;;37.90;37.20;;;;;;5008403;28;20037;-79
2021/07/27 08:11:20;;;;;;;10.05;4.35;;;37.70;38.10;;;;;;5026112;28;20037;-82
2021/07/27 08:13:46;;;;;;;10.43;3.63;;;38.10;37.80;;;;;;5026007;28;20533;-80
2021/07/27 08:16:11;;;;;;;8.98;4.15;;;38.50;37.10;;;;;;5010285;28;20441;-80
2021/07/27 08:18:38;;;;;;;10.85;3.67;;;38.70;36.20;;;;;;5030036;28;20061;-81
2021/07/27 08:21:04;;;;;;;7.75;3.60;;;39.10;35.60;;;;;;5030271;28;20033;-80
2021/07/27 08:23:30;;;;;;;9.90;3.55;;;39.50;35.50;;;;;;5012296;28;20025;-82
2021/07/27 08:25:55;;;;;;;4.88;3.28;;;39.80;34.10;;;;;;5012059;28;20708;-82
2021/07/27 08:28:21;;;;;;;5.20;3.47;;;39.70;33.60;;;;;;5012760;28;20037;-83
2021/07/27 08:30:46;;;;;;;6.47;3.35;;;39.80;33.60;;;;;;5029903;28;20033;-83
2021/07/27 08:33:12;;;;;;;5.05;2.47;;;39.80;33.70;;;;;;5012627;28;20425;-84
2021/07/27 08:35:38;;;;;;;5.38;3.22;;;39.60;33.90;;;;;;5012151;28;20143;-84
2021/07/27 08:38:03;;;;;;;8.48;3.58;;;39.60;34.00;;;;;;5030143;28;20025;-83
2021/07/27 08:40:34;;;;;;;6.47;3.00;;;39.60;33.80;;;;;;5012407;28;20029;-83
2021/07/27 08:43:02;;;;;;;6.03;2.78;;;39.70;33.80;;;;;;5012251;28;20453;-82
2021/07/27 08:45:29;;;;;;;7.57;3.38;;;39.00;33.40;;;;;;5029548;28;20025;-82
2021/07/27 08:47:55;;;;;;;5.78;3.40;;;37.90;34.90;;;;;;5011763;28;20179;-79
2021/07/27 08:50:21;;;;;;;10.50;3.13;;;37.50;35.70;;;;;;5029582;28;20103;-79
2021/07/27 08:52:47;;;;;;;5.20;2.80;;;37.90;35.60;;;;;;5029380;28;20497;-82
2021/07/27 08:55:13;;;;;;;9.90;2.90;;;38.30;34.90;;;;;;5011185;28;20084;-81
2021/07/27 08:57:56;;;;;;;11.90;3.65;;;38.30;34.20;;;;;;5025521;28;20034;-80
2021/07/27 09:00:28;;;;;;;8.60;4.00;;;38.50;34.60;;;;;;5009603;28;20029;-82
2021/07/27 09:02:54;;;;;;;8.07;2.65;;;38.30;34.80;;;;;;5010316;28;20022;-82
2021/07/27 09:05:20;;;;;;;6.75;2.63;;;38.60;34.50;;;;;;5010288;28;20029;-80
2021/07/27 09:07:46;;;;;;;6.60;2.75;;;39.10;33.50;;;;;;5029466;28;20072;-80
2021/07/27 09:10:19;;;;;;;6.60;2.97;;;38.90;33.30;;;;;;5029083;28;20057;-81
2021/07/27 09:12:56;;;;;;;6.28;2.90;;;39.30;33.50;;;;;;5011534;28;20041;-81
2021/07/27 09:15:33;;;;;;;11.73;3.60;;;39.40;32.80;;;;;;5028822;28;20022;-81
2021/07/27 09:18:08;;;;;;;5.68;3.00;;;39.30;32.50;;;;;;5011246;28;20033;-82
2021/07/27 09:20:39;;;;;;;9.73;2.80;;;39.30;33.50;;;;;;5010960;28;20032;-82
2021/07/27 09:23:06;;;;;;;3.35;2.83;;;39.50;33.80;;;;;;5011494;28;20170;-82
2021/07/27 09:25:33;;;;;;;8.40;2.78;;;39.70;33.20;;;;;;5028904;28;20029;-82
2021/07/27 09:28:00;;;;;;;5.45;2.55;;;39.40;32.40;;;;;;5028523;28;20044;-81
2021/07/27 09:30:26;;;;;;;3.28;2.15;;;38.90;32.20;;;;;;5028320;28;20029;-80
2021/07/27 09:32:52;;;;;;;3.53;2.03;;;39.10;32.90;;;;;;5028852;28;20036;-81
2021/07/27 09:35:29;;;;;;;7.03;1.95;;;39.50;31.40;;;;;;5010977;28;20050;-81
2021/07/27 09:38:10;;;;;;;3.97;2.05;;;39.70;31.50;;;;;;5011130;28;20033;-81
2021/07/27 09:40:47;;;;;;;3.33;1.98;;;39.80;31.70;;;;;;5011073;28;20067;-80
2021/07/27 09:43:15;;;;;;;4.13;1.90;;;39.90;30.90;;;;;;5028543;28;20474;-80
2021/07/27 09:45:42;;;;;;;5.35;2.20;;;39.60;31.00;;;;;;5028479;28;20024;-80
2021/07/27 09:48:07;;;;;;;5.78;2.65;;;39.80;31.60;;;;;;5010840;28;20044;-81
2021/07/27 09:50:34;;;;;;;4.68;2.55;;;39.80;31.30;;;;;;5010689;28;20026;-81
2021/07/27 09:53:01;;;;;;;7.00;2.00;;;40.00;31.20;;;;;;5028708;28;20702;-80
2021/07/27 09:55:27;;;;;;;7.07;2.50;;;40.10;30.90;;;;;;5028041;28;20336;-81
2021/07/27 09:57:52;;;;;;;7.28;2.42;;;39.90;30.80;;;;;;5028624;28;20026;-81
2021/07/27 10:00:23;;;;;;;11.40;3.08;;;39.60;31.00;;;;;;5028144;28;20406;-81
2021/07/27 10:02:49;;;;;;;6.50;2.25;;;39.50;31.30;;;;;;5010062;28;20065;-82
2021/07/27 10:05:24;;;;;;;8.52;3.55;;;39.60;31.30;;;;;;5028076;28;20075;-80
2021/07/27 10:07:57;;;;;;;5.28;2.38;;;39.80;30.70;;;;;;5010624;28;20650;-81
2021/07/27 10:10:37;;;;;;;5.60;2.28;;;40.00;30.40;;;;;;5027916;28;20052;-81
2021/07/27 10:13:21;;;;;;;8.43;2.60;;;39.60;31.00;;;;;;5009824;28;20044;-80
2021/07/27 10:15:47;;;;;;;8.65;2.75;;;39.00;31.90;;;;;;5009874;28;20509;-81
2021/07/27 10:18:13;;;;;;;5.88;2.45;;;38.50;32.60;;;;;;5028265;28;20375;-80
2021/07/27 10:20:40;;;;;;;4.35;2.28;;;38.00;32.80;;;;;;5010032;28;20022;-80
2021/07/27 10:23:32;;;;;;;6.65;2.78;;;37.60;33.20;;;;;;5009678;28;20505;-78
2021/07/27 10:25:59;;;;;;;12.98;3.13;;;37.20;33.10;;;;;;5004523;28;20041;-79
2021/07/27 10:28:27;;;;;;;11.90;2.45;;;37.00;33.70;;;;;;5009028;28;20037;-82
2021/07/27 10:31:03;;;;;;;6.07;2.20;;;36.70;34.40;;;;;;5008235;28;20037;-81
2021/07/27 10:33:30;;;;;;;3.42;1.98;;;36.50;34.30;;;;;;5009028;28;20108;-83
2021/07/27 10:35:56;;;;;;;6.40;2.42;;;36.30;35.10;;;;;;5027525;28;20049;-82
2021/07/27 10:38:21;;;;;;;9.98;2.85;;;36.20;35.40;;;;;;5027288;28;20025;-82
2021/07/27 10:40:50;;;;;;;9.45;2.83;;;36.00;35.40;;;;;;5026518;28;20032;-83
2021/07/27 10:43:26;;;;;;;7.43;2.80;;;35.70;35.20;;;;;;5009739;28;20037;-81
2021/07/27 10:46:01;;;;;;;10.65;2.55;;;35.40;35.40;;;;;;5009481;28;20482;-80
2021/07/27 10:48:36;;;;;;;6.95;2.67;;;35.20;36.20;;;;;;5009160;28;20048;-80
2021/07/27 10:51:02;;;;;;;20.08;3.05;;;35.10;36.30;;;;;;5027019;28;20036;-79
2021/07/27 10:53:32;;;;;;;7.22;2.72;;;34.90;36.40;;;;;;5009175;28;20030;-79
2021/07/27 10:56:01;;;;;;;8.63;2.78;;;34.70;36.50;;;;;;5027012;28;20033;-80
2021/07/27 10:58:29;;;;;;;11.90;2.80;;;34.60;36.30;;;;;;5027054;28;20025;-81
2021/07/27 11:01:06;;;;;;;15.25;3.15;;;34.50;37.30;;;;;;5026946;28;20395;-80
2021/07/27 11:03:32;;;;;;;13.00;3.13;;;34.40;37.90;;;;;;5027277;28;20021;-80
2021/07/27 11:06:03;;;;;;;6.75;2.80;;;34.40;37.80;;;;;;5009498;28;20038;-81
2021/07/27 11:08:29;;;;;;;7.90;3.05;;;34.50;38.50;;;;;;5026492;28;20044;-79
2021/07/27 11:11:08;;;;;;;6.95;2.45;;;34.40;38.00;;;;;;5008925;28;20021;-81
2021/07/27 11:13:35;;;;;;;11.88;2.45;;;34.40;37.40;;;;;;5008379;28;20037;-81
2021/07/27 11:16:00;;;;;;;11.13;2.75;;;34.20;37.30;;;;;;5026860;28;20032;-80
2021/07/27 11:18:28;;;;;;;9.35;2.72;;;34.20;37.40;;;;;;5027197;28;20029;-80
2021/07/27 11:20:54;;;;;;;5.45;2.85;;;34.10;37.60;;;;;;5009476;28;20052;-79
2021/07/27 11:23:20;;;;;;;5.90;2.40;;;34.10;37.60;;;;;;5026972;28;20646;-81
2021/07/27 11:25:53;;;;;;;9.00;2.60;;;34.10;37.80;;;;;;5008695;28;20033;-80
2021/07/27 11:28:20;;;;;;;15.05;3.13;;;34.00;37.80;;;;;;5026441;28;20824;-81
2021/07/27 11:30:46;;;;;;;9.35;2.70;;;34.00;38.50;;;;;;5008637;28;20498;-80
2021/07/27 11:33:18;;;;;;;13.27;2.67;;;34.00;38.00;;;;;;5008882;28;20037;-80
2021/07/27 11:35:45;;;;;;;13.10;2.40;;;34.10;38.60;;;;;;5025594;28;20092;-80
2021/07/27 11:38:18;;;;;;;10.93;3.13;;;34.10;37.60;;;;;;5025184;28;20071;-79
2021/07/27 11:40:44;;;;;;;9.93;3.10;;;34.10;37.50;;;;;;5025541;28;20037;-81
2021/07/27 11:43:10;;;;;;;5.20;2.30;;;34.00;38.20;;;;;;5007352;28;20033;-80
2021/07/27 11:45:38;;;;;;;7.22;2.60;;;33.90;38.60;;;;;;5025433;28;20609;-80
2021/07/27 11:48:05;;;;;;;8.13;2.50;;;33.90;38.90;;;;;;5008519;28;20162;-80
2021/07/27 11:50:33;;;;;;;15.70;3.10;;;34.00;38.90;;;;;;5008418;28;20056;-79
2021/07/27 11:53:00;;;;;;;9.85;2.55;;;34.10;38.50;;;;;;5008059;28;20029;-78
2021/07/27 11:55:29;;;;;;;9.43;2.83;;;34.10;38.20;;;;;;5007195;28;20025;-81
2021/07/27 11:57:55;;;;;;;6.75;2.80;;;34.10;39.10;;;;;;5007698;28;20506;-79
2021/07/27 12:00:21;;;;;;;13.68;3.00;;;34.20;38.70;;;;;;5007597;28;20156;-80
2021/07/27 12:02:47;;;;;;;10.55;2.72;;;34.20;38.00;;;;;;5026690;28;20028;-79
2021/07/27 12:05:13;;;;;;;8.48;2.38;;;34.30;38.20;;;;;;5008456;28;20044;-79
2021/07/27 12:07:39;;;;;;;9.48;2.10;;;34.20;38.80;;;;;;5009135;28;20042;-80
2021/07/27 12:10:09;;;;;;;10.50;2.42;;;34.40;39.10;;;;;;5008441;28;20516;-80
2021/07/27 12:12:35;;;;;;;15.88;2.85;;;34.40;38.00;;;;;;5025851;28;20030;-80
2021/07/27 12:15:01;;;;;;;10.15;2.40;;;34.10;38.20;;;;;;5007796;28;20057;-80
2021/07/27 12:17:26;;;;;;;9.32;2.28;;;34.10;38.10;;;;;;5008005;28;20123;-81
2021/07/27 12:19:52;;;;;;;21.13;2.97;;;34.00;38.60;;;;;;5008891;28;20029;-80
2021/07/27 12:22:18;;;;;;;9.40;2.65;;;34.00;38.80;;;;;;5008778;28;20549;-81
2021/07/27 12:24:44;;;;;;;15.48;3.05;;;34.10;39.00;;;;;;5026306;28;20043;-79
2021/07/27 12:27:10;;;;;;;10.52;2.63;;;34.10;38.40;;;;;;5025681;28;20033;-81
2021/07/27 12:29:36;;;;;;;5.90;2.22;;;34.20;38.50;;;;;;5025856;28;20071;-80
2021/07/27 12:32:02;;;;;;;4.15;2.28;;;34.30;38.10;;;;;;5008308;28;20026;-81
2021/07/27 12:34:28;;;;;;;9.70;2.33;;;34.40;37.70;;;;;;5008597;28;20131;-79
2021/07/27 12:36:54;;;;;;;12.82;2.35;;;34.40;37.40;;;;;;5025976;28;20482;-81
2021/07/27 12:39:21;;;;;;;6.55;2.30;;;34.40;36.80;;;;;;5008478;28;20087;-81
2021/07/27 12:41:47;;;;;;;11.93;2.22;;;34.50;37.20;;;;;;5026211;28;20049;-81
2021/07/27 12:44:15;;;;;;;9.65;2.90;;;34.50;37.50;;;;;;5007978;28;20044;-81
2021/07/27 12:46:41;;;;;;;4.68;2.08;;;34.40;37.70;;;;;;5008133;28;20414;-80
2021/07/27 12:49:09;;;;;;;8.23;2.30;;;34.40;37.40;;;;;;5008270;28;20041;-80
2021/07/27 12:51:34;;;;;;;8.02;2.38;;;34.20;36.90;;;;;;5008259;28;20026;-81
2021/07/27 12:54:00;;;;;;;8.55;2.10;;;34.00;37.30;;;;;;5025859;28;20032;-80
2021/07/27 12:56:26;;;;;;;13.85;2.55;;;33.70;38.50;;;;;;5008294;28;20088;-80
2021/07/27 12:58:52;;;;;;;8.30;3.05;;;33.70;39.60;;;;;;5008088;28;20021;-80
2021/07/27 13:01:17;;;;;;;11.05;2.85;;;33.80;38.50;;;;;;5025970;28;20111;-80
2021/07/27 13:03:43;;;;;;;6.72;2.83;;;33.80;37.60;;;;;;5010989;28;20495;-79
2021/07/27 13:06:08;;;;;;;5.38;2.35;;;34.00;37.80;;;;;;5029623;28;20296;-79